Eships Dana — ZDJT6 — position and weather

sailwx.info

Track history (hours):
 
Tides and Currents Weather Stations Pressure Air Temp Water Temp Dewpoint Dewpoint Depression Visibility Wind Speed Wind Dir Waves Ship Positions

Eships Dana

Last reported at 2015-Mar-27 10:31 UTC. Time now 2015-Mar-28 09:23 UTC.
Position N 39°12' W 009°57'.

Length 116 m; draft 5.5 m.

Type: Tanker. MMSI: 236566000.

Date/timePositionNaut miles runAvg speedWind from/ knotsBaromVisibWave heightAir tempDewpointWater temp
2015-Mar-27 10:31N 39°12' W 009°57'1313.1
2015-Mar-27 09:33N 38°59' W 009°57'1313.2
2015-Mar-27 08:32N 38°45' W 009°57'1313.5
2015-Mar-27 07:33N 38°32' W 009°57'1413.4
2015-Mar-27 06:33N 38°19' W 009°57'1613.3
2015-Mar-27 05:21N 38°03' W 009°58'1113.3
2015-Mar-27 04:31N 37°52' W 009°57'1313.9
2015-Mar-27 03:33N 37°38' W 009°57'1413.6
2015-Mar-27 02:30N 37°24' W 009°57'2913.7
2015-Mar-27 00:22N 36°55' W 009°57'1213.6
2015-Mar-26 23:28N 36°43' W 009°57'  
Track history (hours):
 
Tides and Currents Weather Stations Pressure Air Temp Water Temp Dewpoint Dewpoint Depression Visibility Wind Speed Wind Dir Waves Ship Positions

Eships Dana

Last reported at 2015-Mar-27 10:31 UTC. Time now 2015-Mar-28 09:23 UTC.
Position N 39°12' W 009°57'.

Length 116 m; draft 5.5 m.

Type: Tanker. MMSI: 236566000.

Date/timePositionNaut miles runAvg speedWind from/ knotsBaromVisibWave heightAir tempDewpointWater temp
2015-Mar-27 10:31N 39°12' W 009°57'1313.1
2015-Mar-27 09:33N 38°59' W 009°57'1313.2
2015-Mar-27 08:32N 38°45' W 009°57'1313.5
2015-Mar-27 07:33N 38°32' W 009°57'1413.4
2015-Mar-27 06:33N 38°19' W 009°57'1613.3
2015-Mar-27 05:21N 38°03' W 009°58'1113.3
2015-Mar-27 04:31N 37°52' W 009°57'1313.9
2015-Mar-27 03:33N 37°38' W 009°57'1413.6
2015-Mar-27 02:30N 37°24' W 009°57'2913.7
2015-Mar-27 00:22N 36°55' W 009°57'1213.6
2015-Mar-26 23:28N 36°43' W 009°57'  

Dump ship's entire track history